Time;durP1;ratioP1;P1;durP2;ratioP2;P2;SDS_P1;SDS_P2;PMS_P1;PMS_P2;Temp;Humidity;BMP_temperature;BMP_pressure;BME280_temperature;BME280_humidity;BME280_pressure;Samples;Min_cycle;Max_cycle;Signal;HPM_P1;HPM_P2
2023/08/30 00:02:23;;;;;;;16.83;15.07;;;14.30;99.90;;;;;;5073856;28;20044;-71
2023/08/30 00:04:49;;;;;;;16.63;15.05;;;14.20;99.90;;;;;;5073728;28;20043;-71
2023/08/30 00:07:15;;;;;;;17.98;16.20;;;14.20;99.90;;;;;;5073723;28;20043;-71
2023/08/30 00:09:40;;;;;;;18.25;16.33;;;14.20;99.90;;;;;;5073728;28;20094;-71
2023/08/30 00:12:06;;;;;;;17.33;15.32;;;14.10;99.90;;;;;;5073546;28;20041;-71
2023/08/30 00:14:32;;;;;;;16.88;15.27;;;14.20;99.90;;;;;;5073840;28;20040;-71
2023/08/30 00:16:58;;;;;;;17.05;14.95;;;14.10;99.90;;;;;;5073515;28;20071;-71
2023/08/30 00:19:23;;;;;;;17.63;15.80;;;14.10;99.90;;;;;;5073806;28;20036;-71
2023/08/30 00:21:49;;;;;;;17.17;15.52;;;14.10;99.90;;;;;;5073480;28;20047;-71
2023/08/30 00:24:15;;;;;;;16.20;14.60;;;14.00;99.90;;;;;;5073400;28;20094;-71
2023/08/30 00:26:40;;;;;;;15.85;14.35;;;14.00;99.90;;;;;;5073371;28;20041;-71
2023/08/30 00:29:06;;;;;;;16.27;14.68;;;14.00;99.90;;;;;;5073320;28;20051;-71
2023/08/30 00:31:31;;;;;;;17.60;15.82;;;14.00;99.90;;;;;;5072198;28;20119;-71
2023/08/30 00:33:57;;;;;;;14.80;13.40;;;14.00;99.90;;;;;;5073188;28;20041;-71
2023/08/30 00:36:22;;;;;;;15.48;14.00;;;14.10;99.90;;;;;;5073124;28;20127;-71
2023/08/30 00:38:49;;;;;;;15.30;13.80;;;14.00;99.90;;;;;;5073404;28;20040;-71
2023/08/30 00:41:14;;;;;;;14.15;12.80;;;14.10;99.90;;;;;;5073363;28;20048;-71
2023/08/30 00:43:40;;;;;;;15.35;13.75;;;14.00;99.90;;;;;;5073025;28;20405;-71
2023/08/30 00:46:05;;;;;;;14.48;13.05;;;14.00;99.90;;;;;;5072987;28;20036;-71
2023/08/30 00:48:31;;;;;;;14.45;12.98;;;14.00;99.90;;;;;;5072958;28;20120;-71
2023/08/30 00:50:57;;;;;;;14.27;12.88;;;13.90;99.90;;;;;;5072897;28;20042;-71
2023/08/30 00:53:23;;;;;;;12.70;11.48;;;13.90;99.90;;;;;;5072802;28;20044;-71
2023/08/30 00:55:48;;;;;;;13.70;12.35;;;13.90;99.90;;;;;;5072773;28;20043;-71
2023/08/30 00:58:14;;;;;;;12.77;11.45;;;13.90;99.90;;;;;;5072638;28;20055;-71
2023/08/30 01:00:40;;;;;;;11.95;10.85;;;13.90;99.90;;;;;;5072684;28;20032;-71
2023/08/30 01:03:07;;;;;;;11.95;10.85;;;13.90;99.90;;;;;;5072594;28;20120;-71
2023/08/30 01:05:33;;;;;;;12.32;11.10;;;13.90;99.90;;;;;;5072582;28;20041;-71
2023/08/30 01:07:58;;;;;;;12.85;11.55;;;13.90;99.90;;;;;;5072811;28;20041;-71
2023/08/30 01:10:35;;;;;;;12.70;10.45;;;14.00;99.90;;;;;;5072411;28;20463;-71
2023/08/30 01:13:08;;;;;;;11.65;10.45;;;14.00;99.90;;;;;;5072429;28;20036;-71
2023/08/30 01:15:35;;;;;;;12.55;11.20;;;14.00;99.90;;;;;;5072661;28;20511;-71
2023/08/30 01:18:04;;;;;;;10.77;9.77;;;14.00;99.90;;;;;;5072304;28;20052;-71
2023/08/30 01:20:34;;;;;;;11.00;10.00;;;14.10;99.90;;;;;;5072332;28;20040;-71
2023/08/30 01:23:17;;;;;;;12.80;10.10;;;14.10;99.90;;;;;;5072211;28;20041;-71
2023/08/30 01:26:01;;;;;;;;;;;14.20;99.90;;;;;;5072697;28;20036;-71
2023/08/30 01:28:30;;;;;;;12.60;9.88;;;14.10;99.90;;;;;;5072213;28;19920;-71
2023/08/30 01:30:57;;;;;;;12.60;9.32;;;14.10;99.90;;;;;;5072175;28;20044;-71
2023/08/30 01:33:27;;;;;;;12.48;10.48;;;14.10;99.90;;;;;;5072027;28;20421;-71
2023/08/30 01:35:54;;;;;;;11.20;10.10;;;14.10;99.90;;;;;;5072112;28;20119;-71
2023/08/30 01:38:21;;;;;;;11.45;9.82;;;14.10;99.90;;;;;;5072002;28;20086;-71
2023/08/30 01:40:47;;;;;;;11.23;9.23;;;14.10;99.90;;;;;;5072255;28;20044;-71
2023/08/30 01:43:15;;;;;;;10.45;9.18;;;14.20;99.90;;;;;;5071541;28;20409;-71
2023/08/30 01:45:43;;;;;;;12.63;9.90;;;14.20;99.90;;;;;;5071991;28;20119;-71
2023/08/30 01:48:11;;;;;;;11.98;9.50;;;14.20;99.90;;;;;;5072209;28;20032;-71
2023/08/30 01:50:39;;;;;;;10.90;9.88;;;14.20;99.90;;;;;;5071899;28;20090;-71
2023/08/30 01:53:06;;;;;;;11.38;9.32;;;14.20;99.90;;;;;;5071788;28;20115;-71
2023/08/30 01:55:32;;;;;;;12.70;9.88;;;14.20;99.90;;;;;;5071854;28;20047;-71
2023/08/30 01:57:58;;;;;;;11.55;9.23;;;14.20;99.90;;;;;;5071772;28;20036;-71
2023/08/30 02:00:24;;;;;;;10.57;9.55;;;14.20;99.90;;;;;;5071785;28;20044;-71
2023/08/30 02:02:49;;;;;;;10.23;9.02;;;14.30;99.90;;;;;;5072010;28;20039;-71
2023/08/30 02:05:15;;;;;;;11.02;9.35;;;14.20;99.90;;;;;;5071692;28;20405;-71
2023/08/30 02:08:09;;;;;;;11.05;9.95;;;14.20;99.90;;;;;;5071989;28;20076;-71
2023/08/30 02:10:37;;;;;;;10.73;9.52;;;14.10;99.90;;;;;;5071877;28;20048;-71
2023/08/30 02:13:04;;;;;;;10.23;9.30;;;14.00;99.90;;;;;;5071827;28;20497;-71
2023/08/30 02:15:33;;;;;;;10.98;9.88;;;13.90;99.90;;;;;;5071652;28;20041;-71
2023/08/30 02:17:59;;;;;;;10.50;9.32;;;13.80;99.90;;;;;;5071554;28;20036;-71
2023/08/30 02:20:25;;;;;;;11.02;9.32;;;13.80;99.90;;;;;;5071886;28;20036;-71
2023/08/30 02:22:51;;;;;;;10.15;9.15;;;13.70;99.90;;;;;;5071583;28;20506;-71
2023/08/30 02:25:16;;;;;;;10.88;9.60;;;13.70;99.90;;;;;;5071471;28;20041;-71
2023/08/30 02:27:42;;;;;;;12.55;9.25;;;13.70;99.90;;;;;;5071780;28;20052;-71
2023/08/30 02:30:08;;;;;;;11.23;8.75;;;13.70;99.90;;;;;;5071491;28;20036;-71
2023/08/30 02:32:33;;;;;;;11.48;9.00;;;13.80;99.90;;;;;;5071773;28;20052;-71
2023/08/30 02:34:59;;;;;;;9.43;8.52;;;13.80;99.90;;;;;;5071665;28;20488;-71
2023/08/30 02:37:25;;;;;;;9.57;8.57;;;13.80;99.90;;;;;;5054721;28;20412;-71
2023/08/30 02:39:50;;;;;;;10.75;8.73;;;13.80;99.90;;;;;;5071495;28;20041;-71
2023/08/30 02:42:16;;;;;;;10.07;8.25;;;13.80;99.90;;;;;;5071408;28;20041;-71
2023/08/30 02:44:42;;;;;;;9.95;8.70;;;13.90;99.90;;;;;;5071903;28;20040;-71
2023/08/30 02:47:07;;;;;;;9.40;8.13;;;13.90;99.90;;;;;;5071325;28;20032;-71
2023/08/30 02:49:33;;;;;;;10.40;8.57;;;13.90;99.90;;;;;;5071577;28;20081;-71
2023/08/30 02:51:59;;;;;;;10.65;7.90;;;13.90;99.90;;;;;;5071316;28;20406;-71
2023/08/30 02:54:24;;;;;;;9.35;8.00;;;14.00;99.90;;;;;;5072059;28;20127;-71
2023/08/30 02:56:50;;;;;;;9.60;8.05;;;14.00;99.90;;;;;;5074998;28;20033;-71
2023/08/30 02:59:15;;;;;;;9.00;7.25;;;13.90;99.90;;;;;;5075238;28;20106;-71
2023/08/30 03:01:41;;;;;;;10.80;8.55;;;13.90;99.90;;;;;;5074994;28;20131;-71
2023/08/30 03:04:07;;;;;;;8.88;8.02;;;14.00;99.90;;;;;;5074858;28;20139;-71
2023/08/30 03:06:34;;;;;;;9.45;8.15;;;14.00;99.90;;;;;;5074918;28;20079;-71
2023/08/30 03:09:00;;;;;;;9.30;8.10;;;13.90;99.90;;;;;;5074838;28;20036;-71
2023/08/30 03:11:25;;;;;;;10.48;8.38;;;13.90;99.90;;;;;;5074586;28;20106;-71
2023/08/30 03:13:54;;;;;;;11.35;8.40;;;13.90;99.90;;;;;;5074652;28;20068;-71
2023/08/30 03:16:20;;;;;;;10.85;8.65;;;13.90;99.90;;;;;;5074633;28;20040;-71
2023/08/30 03:18:46;;;;;;;9.95;8.43;;;13.80;99.90;;;;;;5074637;28;20378;-71
2023/08/30 03:21:13;;;;;;;9.05;8.10;;;13.80;99.90;;;;;;5074886;28;20047;-71
2023/08/30 03:23:39;;;;;;;10.65;8.60;;;13.70;99.90;;;;;;5074747;28;20059;-71
2023/08/30 03:26:10;;;;;;;9.82;8.23;;;13.70;99.90;;;;;;5074558;28;20127;-71
2023/08/30 03:28:36;;;;;;;13.32;8.80;;;13.70;99.90;;;;;;5074502;28;20188;-71
2023/08/30 03:31:01;;;;;;;10.48;8.98;;;13.60;99.90;;;;;;5074690;28;20097;-71
2023/08/30 03:33:27;;;;;;;12.30;9.05;;;13.60;99.90;;;;;;5074568;28;20485;-71
2023/08/30 03:35:53;;;;;;;10.77;9.60;;;13.60;99.90;;;;;;5074363;28;20033;-71
2023/08/30 03:38:18;;;;;;;9.75;8.75;;;13.50;99.90;;;;;;5074250;28;20045;-71
2023/08/30 03:40:44;;;;;;;11.07;8.75;;;13.50;99.90;;;;;;5074262;28;20036;-71
2023/08/30 03:43:10;;;;;;;11.18;9.27;;;13.50;99.90;;;;;;5074133;28;20085;-71
2023/08/30 03:45:36;;;;;;;10.50;9.15;;;13.40;99.90;;;;;;5074199;28;20055;-71
2023/08/30 03:48:03;;;;;;;10.38;9.30;;;13.40;99.90;;;;;;5074765;28;20037;-71
2023/08/30 03:50:29;;;;;;;10.20;8.90;;;13.40;99.90;;;;;;5074359;28;20053;-71
2023/08/30 03:52:55;;;;;;;11.00;9.63;;;13.50;99.90;;;;;;5074054;28;20512;-71
2023/08/30 03:55:22;;;;;;;10.73;9.63;;;13.40;99.90;;;;;;5075024;28;20098;-71
2023/08/30 03:57:48;;;;;;;10.88;9.07;;;13.40;99.90;;;;;;5073900;28;20060;-71
2023/08/30 04:00:14;;;;;;;10.55;8.80;;;13.50;99.90;;;;;;5073956;28;20036;-71
2023/08/30 04:02:39;;;;;;;10.82;9.57;;;13.50;99.90;;;;;;5073875;28;20036;-71
2023/08/30 04:05:08;;;;;;;9.48;8.27;;;13.50;99.90;;;;;;5056832;28;20040;-71
2023/08/30 04:07:35;;;;;;;10.60;8.93;;;13.50;99.90;;;;;;5074040;28;20135;-71
2023/08/30 04:10:02;;;;;;;10.35;9.20;;;13.50;99.90;;;;;;5073707;28;20068;-71
2023/08/30 04:12:28;;;;;;;10.88;9.48;;;13.50;99.90;;;;;;5073620;28;20048;-71
2023/08/30 04:14:54;;;;;;;12.02;8.85;;;13.60;99.90;;;;;;5073574;28;20040;-71
2023/08/30 04:17:19;;;;;;;11.15;9.23;;;13.60;99.90;;;;;;5073540;28;20041;-71
2023/08/30 04:19:45;;;;;;;9.25;8.30;;;13.60;99.90;;;;;;5073545;28;20040;-71
2023/08/30 04:22:11;;;;;;;12.18;9.73;;;13.60;99.90;;;;;;5073499;28;20036;-71
2023/08/30 04:24:36;;;;;;;10.38;9.25;;;13.60;99.90;;;;;;5073438;28;20040;-71
2023/08/30 04:27:02;;;;;;;10.57;9.48;;;13.60;99.90;;;;;;5073425;28;20051;-71
2023/08/30 04:29:27;;;;;;;11.10;9.70;;;13.70;99.90;;;;;;5073382;28;20033;-71
2023/08/30 04:31:54;;;;;;;10.65;9.48;;;13.60;99.90;;;;;;5056700;28;20040;-71
2023/08/30 04:34:19;;;;;;;10.73;9.13;;;13.60;99.90;;;;;;5073452;28;20501;-71
2023/08/30 04:36:45;;;;;;;12.02;9.18;;;13.60;99.90;;;;;;5073176;28;20066;-71
2023/08/30 04:39:13;;;;;;;10.88;9.77;;;13.60;99.90;;;;;;5073458;28;20040;-71
2023/08/30 04:41:39;;;;;;;12.13;9.85;;;13.60;99.90;;;;;;5073115;28;20048;-71
2023/08/30 04:44:04;;;;;;;13.32;10.35;;;13.60;99.90;;;;;;5073296;28;20123;-71
2023/08/30 04:46:30;;;;;;;11.98;9.90;;;13.60;99.90;;;;;;5073016;28;20493;-71
2023/08/30 04:48:55;;;;;;;11.43;10.23;;;13.60;99.90;;;;;;5072946;28;20088;-71
2023/08/30 04:51:21;;;;;;;11.77;10.10;;;13.60;99.90;;;;;;5072909;28;20040;-71
2023/08/30 04:53:47;;;;;;;12.25;10.75;;;13.50;99.90;;;;;;5056196;28;20051;-71
2023/08/30 04:56:13;;;;;;;12.90;10.98;;;13.50;99.90;;;;;;5073020;28;20056;-71
2023/08/30 04:58:39;;;;;;;11.43;10.10;;;13.50;99.90;;;;;;5072778;28;20128;-71
2023/08/30 05:01:06;;;;;;;10.50;9.50;;;13.50;99.90;;;;;;5072970;28;20048;-71
2023/08/30 05:03:32;;;;;;;11.60;10.40;;;13.50;99.90;;;;;;5072634;28;20086;-71
2023/08/30 05:05:58;;;;;;;13.27;9.52;;;13.50;99.90;;;;;;5072600;28;20036;-71
2023/08/30 05:08:23;;;;;;;11.15;10.05;;;13.50;99.90;;;;;;5072847;28;20048;-71
2023/08/30 05:10:49;;;;;;;11.95;10.05;;;13.60;99.90;;;;;;5072447;28;20036;-71
2023/08/30 05:13:16;;;;;;;13.75;10.38;;;13.60;99.90;;;;;;5072426;28;20052;-71
2023/08/30 05:15:42;;;;;;;11.77;10.55;;;13.60;99.90;;;;;;5072711;28;20048;-71
2023/08/30 05:18:07;;;;;;;12.50;9.65;;;13.60;99.90;;;;;;5071700;28;20382;-71
2023/08/30 05:20:33;;;;;;;10.88;9.65;;;13.60;99.90;;;;;;5073618;28;20083;-71
2023/08/30 05:22:59;;;;;;;12.27;9.77;;;13.60;99.90;;;;;;5072194;28;20089;-71
2023/08/30 05:25:25;;;;;;;10.07;9.07;;;13.60;99.90;;;;;;5072309;28;20040;-71
2023/08/30 05:27:51;;;;;;;11.65;9.90;;;13.60;99.90;;;;;;5072493;28;20485;-71
2023/08/30 05:30:17;;;;;;;11.65;9.70;;;13.60;99.90;;;;;;5072245;28;20044;-71
2023/08/30 05:32:42;;;;;;;11.75;10.38;;;13.60;99.90;;;;;;5072716;28;20028;-71
2023/08/30 05:35:08;;;;;;;11.25;10.00;;;13.60;99.90;;;;;;5073364;28;20386;-71
2023/08/30 05:37:34;;;;;;;12.40;9.35;;;13.70;99.90;;;;;;5072107;28;20049;-71
2023/08/30 05:39:59;;;;;;;15.15;9.85;;;13.70;99.90;;;;;;5072086;28;20059;-70
2023/08/30 05:42:25;;;;;;;15.20;9.65;;;13.70;99.90;;;;;;5072099;28;20044;-71
2023/08/30 05:44:50;;;;;;;12.43;10.20;;;13.80;99.90;;;;;;5071978;28;20032;-70
2023/08/30 05:47:17;;;;;;;10.50;9.18;;;13.80;99.90;;;;;;5072287;28;20113;-70
2023/08/30 05:49:43;;;;;;;11.50;9.75;;;13.90;99.90;;;;;;5072280;28;20084;-70
2023/08/30 05:52:09;;;;;;;12.55;9.77;;;13.90;99.90;;;;;;5071994;28;20469;-70
2023/08/30 05:54:34;;;;;;;12.10;10.38;;;13.90;99.90;;;;;;5071902;28;20064;-70
2023/08/30 05:57:00;;;;;;;10.57;9.35;;;13.90;99.90;;;;;;5072094;28;20170;-70
2023/08/30 05:59:26;;;;;;;13.73;10.05;;;13.90;99.90;;;;;;5071906;28;20508;-70
2023/08/30 06:01:51;;;;;;;10.60;9.50;;;13.90;99.90;;;;;;5071865;28;20116;-70
2023/08/30 06:04:17;;;;;;;12.18;10.15;;;14.00;99.90;;;;;;5072070;28;20075;-70
2023/08/30 06:06:42;;;;;;;13.75;10.25;;;14.00;99.90;;;;;;5073051;28;20497;-70
2023/08/30 06:09:08;;;;;;;13.43;10.85;;;14.00;99.90;;;;;;5072021;28;20045;-70
2023/08/30 06:11:34;;;;;;;14.13;9.85;;;14.00;99.90;;;;;;5071592;28;20520;-70
2023/08/30 06:13:59;;;;;;;14.10;10.13;;;14.00;99.90;;;;;;5071670;28;20037;-71
2023/08/30 06:16:25;;;;;;;12.02;10.27;;;14.00;99.90;;;;;;5071694;28;20049;-70
2023/08/30 06:18:51;;;;;;;15.73;10.55;;;14.10;99.90;;;;;;5071985;28;20037;-70
2023/08/30 06:21:16;;;;;;;17.45;11.27;;;14.10;99.90;;;;;;5071721;28;20397;-70
2023/08/30 06:23:42;;;;;;;13.10;9.90;;;14.10;99.90;;;;;;5071666;28;20076;-70
2023/08/30 06:26:08;;;;;;;14.70;11.40;;;14.10;99.90;;;;;;5071693;28;20090;-70
2023/08/30 06:28:33;;;;;;;14.68;11.60;;;14.10;99.90;;;;;;5072857;28;20044;-70
2023/08/30 06:30:59;;;;;;;15.95;10.88;;;14.10;99.90;;;;;;5075657;28;20044;-70
2023/08/30 06:33:25;;;;;;;18.23;10.32;;;14.20;99.90;;;;;;5075608;28;20047;-71
2023/08/30 06:35:50;;;;;;;15.10;10.93;;;14.20;99.90;;;;;;5075840;28;20040;-71
2023/08/30 06:38:16;;;;;;;15.70;11.00;;;14.30;99.90;;;;;;5076894;28;20066;-71
2023/08/30 06:40:46;;;;;;;13.35;11.18;;;14.30;99.90;;;;;;5077071;28;20485;-71
2023/08/30 06:43:12;;;;;;;14.70;11.00;;;14.30;99.90;;;;;;5075546;28;20041;-71
2023/08/30 06:45:39;;;;;;;14.85;10.23;;;14.30;99.90;;;;;;5075900;28;20043;-71
2023/08/30 06:48:07;;;;;;;13.85;11.32;;;14.30;99.90;;;;;;5075339;28;20048;-71
2023/08/30 06:50:33;;;;;;;13.15;11.35;;;14.30;99.90;;;;;;5075553;28;20055;-71
2023/08/30 06:52:58;;;;;;;14.40;11.40;;;14.40;99.90;;;;;;5075177;28;20404;-71
2023/08/30 06:55:24;;;;;;;13.38;11.50;;;14.40;99.90;;;;;;5075218;28;20051;-71
2023/08/30 06:57:50;;;;;;;13.32;11.13;;;14.40;99.90;;;;;;5075052;28;20125;-71
2023/08/30 07:00:16;;;;;;;17.65;11.18;;;14.40;99.90;;;;;;5075068;28;20044;-70
2023/08/30 07:02:45;;;;;;;14.50;10.68;;;14.50;99.90;;;;;;5075364;28;20036;-70
2023/08/30 07:05:13;;;;;;;13.57;10.57;;;14.50;99.90;;;;;;5074970;28;20075;-71
2023/08/30 07:07:39;;;;;;;12.63;10.40;;;14.60;99.90;;;;;;5075214;28;20044;-71
2023/08/30 07:10:05;;;;;;;13.27;10.07;;;14.60;99.90;;;;;;5074921;28;20079;-71
2023/08/30 07:12:31;;;;;;;14.23;10.90;;;14.70;99.90;;;;;;5074785;28;20048;-71
2023/08/30 07:14:57;;;;;;;12.50;10.32;;;14.70;99.90;;;;;;5075079;28;20043;-70
2023/08/30 07:17:22;;;;;;;14.30;10.48;;;14.70;99.90;;;;;;5074718;28;20501;-70
2023/08/30 07:19:49;;;;;;;11.35;10.15;;;14.80;99.90;;;;;;5074723;28;20081;-70
2023/08/30 07:22:16;;;;;;;14.15;11.07;;;14.80;99.90;;;;;;5074969;28;20040;-70
2023/08/30 07:24:43;;;;;;;15.68;10.73;;;14.90;99.90;;;;;;5074874;28;20041;-71
2023/08/30 07:27:08;;;;;;;12.73;10.30;;;14.90;99.90;;;;;;5074645;28;20048;-75
2023/08/30 07:29:34;;;;;;;13.23;11.50;;;15.00;99.90;;;;;;5074549;28;20052;-70
2023/08/30 07:32:00;;;;;;;14.77;10.82;;;15.10;99.90;;;;;;5074755;28;20036;-70
2023/08/30 07:34:25;;;;;;;13.05;10.75;;;15.10;99.90;;;;;;5074443;28;20036;-70
2023/08/30 07:36:54;;;;;;;14.18;10.77;;;15.20;99.90;;;;;;5074599;28;20052;-70
2023/08/30 07:39:20;;;;;;;14.75;11.00;;;15.30;99.90;;;;;;5074729;28;20040;-70
2023/08/30 07:41:45;;;;;;;15.40;10.98;;;15.40;99.90;;;;;;5073936;28;20041;-70
2023/08/30 07:44:11;;;;;;;12.95;10.48;;;15.50;99.90;;;;;;5074530;28;20041;-70
2023/08/30 07:46:36;;;;;;;12.45;10.80;;;15.60;99.90;;;;;;5075728;28;20490;-70
2023/08/30 07:49:02;;;;;;;12.85;10.60;;;15.70;99.90;;;;;;5075687;28;20382;-70
2023/08/30 07:51:28;;;;;;;13.13;9.50;;;15.90;99.90;;;;;;5074195;28;20040;-70
2023/08/30 07:53:54;;;;;;;12.57;10.43;;;16.00;99.90;;;;;;5074230;28;20045;-70
2023/08/30 07:56:19;;;;;;;13.73;10.23;;;16.10;99.90;;;;;;5074085;28;20033;-70
2023/08/30 07:58:45;;;;;;;11.43;9.95;;;16.10;99.90;;;;;;5074151;28;20048;-70
2023/08/30 08:01:10;;;;;;;15.52;10.63;;;16.20;99.90;;;;;;5074261;28;20044;-70
2023/08/30 08:03:36;;;;;;;13.68;11.27;;;16.30;99.90;;;;;;5073997;28;20040;-70
2023/08/30 08:06:03;;;;;;;13.45;11.07;;;16.30;99.90;;;;;;5073928;28;20093;-70
2023/08/30 08:08:28;;;;;;;13.23;11.20;;;16.30;99.90;;;;;;5073952;28;20052;-70
2023/08/30 08:10:54;;;;;;;13.70;10.93;;;16.30;99.90;;;;;;5073741;28;20048;-70
2023/08/30 08:13:20;;;;;;;11.77;10.52;;;16.30;99.90;;;;;;5074154;28;20048;-70
2023/08/30 08:15:45;;;;;;;16.50;11.18;;;16.30;99.90;;;;;;5074155;28;20090;-70
2023/08/30 08:18:11;;;;;;;13.95;10.85;;;16.30;99.90;;;;;;5074031;28;20083;-70
2023/08/30 08:20:37;;;;;;;12.27;10.45;;;16.30;99.90;;;;;;5073794;28;20469;-70
2023/08/30 08:23:03;;;;;;;12.73;10.52;;;16.30;99.90;;;;;;5073499;28;20039;-70
2023/08/30 08:25:28;;;;;;;14.40;10.77;;;16.30;99.90;;;;;;5073551;28;20040;-70
2023/08/30 08:27:57;;;;;;;14.60;10.98;;;16.30;99.90;;;;;;5073532;28;20045;-70
2023/08/30 08:30:23;;;;;;;13.98;11.18;;;16.30;99.90;;;;;;5057031;28;20044;-70
2023/08/30 08:32:48;;;;;;;12.00;10.25;;;16.20;99.90;;;;;;5073633;28;20122;-72
2023/08/30 08:35:14;;;;;;;17.08;11.70;;;16.20;99.90;;;;;;5074063;28;20473;-70
2023/08/30 08:37:40;;;;;;;13.82;10.75;;;16.20;99.90;;;;;;5073363;28;20041;-70
2023/08/30 08:40:08;;;;;;;13.50;10.73;;;16.30;99.90;;;;;;5073262;28;20516;-70
2023/08/30 08:42:35;;;;;;;14.00;10.50;;;16.30;99.90;;;;;;5056575;28;20044;-70
2023/08/30 08:45:02;;;;;;;13.98;11.18;;;16.30;99.90;;;;;;5073365;28;20045;-70
2023/08/30 08:47:30;;;;;;;12.10;10.20;;;16.30;99.90;;;;;;5073102;28;20048;-70
2023/08/30 08:49:55;;;;;;;15.77;10.18;;;16.30;99.90;;;;;;5056624;28;20059;-70
2023/08/30 08:52:21;;;;;;;13.63;10.27;;;16.30;99.90;;;;;;5072249;28;20401;-70
2023/08/30 08:54:47;;;;;;;14.48;10.20;;;16.30;99.90;;;;;;5072855;28;20047;-70
2023/08/30 08:57:13;;;;;;;13.02;10.30;;;16.20;99.90;;;;;;5072825;28;20045;-70
2023/08/30 08:59:39;;;;;;;13.77;10.10;;;16.20;99.90;;;;;;5072819;28;20047;-70
2023/08/30 09:02:06;;;;;;;12.02;10.65;;;16.20;99.90;;;;;;5072866;28;20048;-70
2023/08/30 09:04:32;;;;;;;13.70;10.75;;;16.10;99.90;;;;;;5074914;28;20043;-70
2023/08/30 09:07:01;;;;;;;13.93;9.95;;;16.10;99.90;;;;;;5072711;28;20042;-70
2023/08/30 09:09:27;;;;;;;13.77;10.50;;;16.00;99.90;;;;;;5072632;28;20047;-70
2023/08/30 09:11:53;;;;;;;14.52;10.40;;;16.00;99.90;;;;;;5072711;28;20044;-70
2023/08/30 09:14:25;;;;;;;15.43;9.63;;;16.00;99.90;;;;;;5090918;28;20936;-69
2023/08/30 09:16:58;;;;;;;12.27;10.18;;;16.00;99.90;;;;;;5089425;28;20052;-69
2023/08/30 09:19:24;;;;;;;12.63;10.07;;;15.90;99.90;;;;;;5089321;28;20451;-69
2023/08/30 09:21:57;;;;;;;14.20;10.20;;;15.90;99.90;;;;;;5089539;28;20048;-69
2023/08/30 09:24:24;;;;;;;14.18;10.23;;;15.80;99.90;;;;;;5089247;28;20055;-69
2023/08/30 09:26:52;;;;;;;11.57;8.55;;;15.80;99.90;;;;;;5089192;28;20093;-69
2023/08/30 09:29:19;;;;;;;13.73;9.75;;;15.70;99.90;;;;;;5089374;28;20501;-69
2023/08/30 09:31:45;;;;;;;13.80;9.10;;;15.70;99.90;;;;;;5089086;28;20094;-69
2023/08/30 09:34:11;;;;;;;15.35;10.30;;;15.60;99.90;;;;;;5088998;28;20044;-69
2023/08/30 09:36:41;;;;;;;14.40;9.80;;;15.50;99.90;;;;;;5089011;28;20451;-69
2023/08/30 09:39:11;;;;;;;13.75;9.88;;;15.50;99.90;;;;;;5089231;28;20036;-69
2023/08/30 09:41:41;;;;;;;15.02;9.68;;;15.40;99.90;;;;;;5089241;28;20044;-69
2023/08/30 09:44:14;;;;;;;15.80;9.45;;;15.30;99.90;;;;;;5088815;28;20051;-69
2023/08/30 09:46:50;;;;;;;11.32;9.07;;;15.30;99.90;;;;;;5088815;28;20055;-69
2023/08/30 09:49:22;;;;;;;12.30;8.60;;;15.20;99.90;;;;;;5089094;28;20105;-69
2023/08/30 09:51:49;;;;;;;10.15;8.13;;;15.20;99.90;;;;;;5088798;28;20048;-69
2023/08/30 09:54:28;;;;;;;11.20;8.32;;;15.20;99.90;;;;;;5088575;28;20073;-69
2023/08/30 09:56:56;;;;;;;11.25;8.55;;;15.30;99.90;;;;;;5088679;28;20074;-69
2023/08/30 09:59:22;;;;;;;9.80;8.77;;;15.30;99.90;;;;;;5088602;28;20044;-69
2023/08/30 10:01:48;;;;;;;12.23;9.15;;;15.30;99.90;;;;;;5088561;28;20040;-69
2023/08/30 10:04:15;;;;;;;10.60;8.88;;;15.40;99.90;;;;;;5088464;28;20059;-69
2023/08/30 10:06:40;;;;;;;10.85;9.23;;;15.50;99.90;;;;;;5088481;28;20497;-70
2023/08/30 10:09:08;;;;;;;11.40;8.82;;;15.60;99.90;;;;;;5088432;28;20044;-69
2023/08/30 10:11:38;;;;;;;11.05;8.77;;;15.70;99.90;;;;;;5088445;28;20036;-69
2023/08/30 10:14:05;;;;;;;10.57;9.10;;;15.90;99.90;;;;;;5089485;28;20041;-69
2023/08/30 10:16:45;;;;;;;13.27;9.38;;;16.00;99.90;;;;;;5088228;28;20040;-69
2023/08/30 10:19:13;;;;;;;14.77;10.90;;;16.10;99.90;;;;;;5088360;28;20036;-69
2023/08/30 10:21:39;;;;;;;15.05;11.05;;;16.20;99.90;;;;;;5088149;28;20068;-69
2023/08/30 10:24:08;;;;;;;12.10;9.93;;;16.30;99.90;;;;;;5084144;28;20083;-69
2023/08/30 10:26:35;;;;;;;12.50;10.02;;;16.40;99.90;;;;;;5074613;28;20080;-69
2023/08/30 10:29:03;;;;;;;10.32;8.85;;;16.50;99.90;;;;;;5074813;28;20044;-69
2023/08/30 10:31:29;;;;;;;9.80;8.52;;;16.60;99.90;;;;;;5074488;28;20493;-69
2023/08/30 10:33:55;;;;;;;13.48;9.00;;;16.70;99.90;;;;;;5074399;28;20047;-69
2023/08/30 10:36:25;;;;;;;10.13;8.95;;;16.90;99.90;;;;;;5074432;28;20048;-69
2023/08/30 10:38:52;;;;;;;10.20;8.48;;;16.90;99.90;;;;;;5074667;28;20606;-69
2023/08/30 10:41:23;;;;;;;11.07;8.50;;;16.90;99.90;;;;;;5074321;28;20515;-69
2023/08/30 10:43:51;;;;;;;12.23;8.50;;;16.80;99.90;;;;;;5074484;28;20519;-69
2023/08/30 10:46:17;;;;;;;9.85;8.23;;;16.70;99.90;;;;;;5074290;28;20049;-69
2023/08/30 10:48:43;;;;;;;10.27;8.70;;;16.70;99.90;;;;;;5074204;28;20040;-69
2023/08/30 10:51:40;;;;;;;11.05;8.25;;;16.60;99.90;;;;;;5074404;28;20052;-68
2023/08/30 10:54:16;;;;;;;11.90;9.05;;;16.50;99.90;;;;;;5073959;28;20048;-68
2023/08/30 10:56:55;;;;;;;15.00;9.45;;;16.40;99.90;;;;;;5075460;28;20091;-68
2023/08/30 10:59:22;;;;;;;10.43;8.93;;;16.40;99.90;;;;;;5073988;28;20033;-68
2023/08/30 11:01:50;;;;;;;12.05;9.35;;;16.30;99.90;;;;;;5073963;28;20102;-69
2023/08/30 11:04:17;;;;;;;10.43;8.82;;;16.30;99.90;;;;;;5073892;28;20040;-69
2023/08/30 11:06:48;;;;;;;10.00;9.00;;;16.30;99.90;;;;;;5075028;28;20423;-71
2023/08/30 11:09:17;;;;;;;9.23;8.25;;;16.20;99.90;;;;;;5073785;28;20128;-71
2023/08/30 11:11:43;;;;;;;10.82;8.90;;;16.20;99.90;;;;;;5074060;28;20044;-71
2023/08/30 11:14:09;;;;;;;10.80;8.85;;;16.10;99.90;;;;;;5073508;28;20032;-71
2023/08/30 11:16:36;;;;;;;12.15;8.63;;;16.10;99.90;;;;;;5073906;28;20036;-71
2023/08/30 11:19:06;;;;;;;12.68;9.40;;;16.10;99.90;;;;;;5073612;28;20085;-71
2023/08/30 11:21:34;;;;;;;12.10;9.20;;;16.10;99.90;;;;;;5056819;28;20516;-71
2023/08/30 11:24:00;;;;;;;11.38;8.75;;;16.10;99.90;;;;;;5056765;28;20047;-72
2023/08/30 11:26:26;;;;;;;9.68;8.30;;;16.00;99.90;;;;;;5073536;28;20037;-72
2023/08/30 11:28:52;;;;;;;9.23;8.32;;;16.00;99.90;;;;;;5073461;28;20142;-72
2023/08/30 11:31:22;;;;;;;11.43;8.30;;;16.00;99.90;;;;;;5073348;28;20416;-72
2023/08/30 11:33:58;;;;;;;10.43;8.30;;;16.00;99.90;;;;;;5073622;28;20055;-72
2023/08/30 11:36:27;;;;;;;10.57;8.45;;;15.90;99.90;;;;;;5072689;28;20041;-72
2023/08/30 11:38:53;;;;;;;9.55;7.85;;;15.90;99.90;;;;;;5073436;28;20044;-72
2023/08/30 11:41:23;;;;;;;9.43;8.43;;;15.90;99.90;;;;;;5073149;28;20036;-72
2023/08/30 11:43:49;;;;;;;10.18;8.32;;;15.90;99.90;;;;;;5073028;28;20158;-72
2023/08/30 11:46:15;;;;;;;9.13;8.23;;;15.90;99.90;;;;;;5073244;28;20491;-72
2023/08/30 11:48:41;;;;;;;11.68;8.23;;;15.90;99.90;;;;;;5073022;28;20074;-72
2023/08/30 11:51:08;;;;;;;10.77;8.30;;;15.90;99.90;;;;;;5072959;28;20051;-72
2023/08/30 11:53:34;;;;;;;9.32;8.20;;;15.90;99.90;;;;;;5073080;28;20076;-72
2023/08/30 11:56:00;;;;;;;10.68;8.55;;;15.80;99.90;;;;;;5073131;28;20047;-74
2023/08/30 11:58:25;;;;;;;11.07;9.27;;;15.90;99.90;;;;;;5072894;28;20404;-74
2023/08/30 12:00:53;;;;;;;11.15;8.10;;;15.80;99.90;;;;;;5073119;28;20032;-74
2023/08/30 12:03:19;;;;;;;10.70;8.73;;;15.90;99.90;;;;;;5072918;28;20093;-74
2023/08/30 12:05:50;;;;;;;8.25;7.35;;;15.90;99.90;;;;;;5072672;28;20040;-74
2023/08/30 12:08:19;;;;;;;8.75;7.85;;;16.00;99.90;;;;;;5056036;28;20036;-74
2023/08/30 12:10:46;;;;;;;11.30;8.13;;;16.00;99.90;;;;;;5072581;28;20040;-70
2023/08/30 12:13:33;;;;;;;13.10;8.82;;;16.00;99.90;;;;;;5072185;28;20066;-71
2023/08/30 12:15:59;;;;;;;9.68;8.48;;;16.10;99.90;;;;;;5072729;28;20044;-71
2023/08/30 12:18:32;;;;;;;9.23;7.72;;;16.00;99.90;;;;;;5055777;28;20512;-71
2023/08/30 12:20:59;;;;;;;8.45;7.57;;;16.00;99.90;;;;;;5072395;28;20501;-71
2023/08/30 12:23:26;;;;;;;11.93;8.70;;;16.00;99.90;;;;;;5072292;28;20405;-71
2023/08/30 12:26:09;;;;;;;8.98;8.07;;;16.00;99.90;;;;;;5072560;28;20040;-71
2023/08/30 12:28:39;;;;;;;10.45;7.78;;;16.00;99.90;;;;;;5073884;28;20123;-71
2023/08/30 12:31:05;;;;;;;7.43;6.72;;;16.10;99.90;;;;;;5072324;28;20052;-71
2023/08/30 12:33:31;;;;;;;8.65;7.80;;;16.10;99.90;;;;;;5072041;28;20040;-71